createdAt,value
2023-04-18T00:02:03.787Z,4.90
2023-04-18T00:04:34.052Z,4.75
2023-04-18T00:07:02.484Z,4.07
2023-04-18T00:09:30.713Z,4.45
2023-04-18T00:11:59.108Z,4.50
2023-04-18T00:14:29.013Z,4.07
2023-04-18T00:16:57.340Z,3.60
2023-04-18T00:19:25.661Z,3.28
2023-04-18T00:21:55.932Z,3.60
2023-04-18T00:24:24.267Z,3.63
2023-04-18T00:26:52.466Z,3.63
2023-04-18T00:29:20.653Z,3.60
2023-04-18T00:31:48.913Z,3.38
2023-04-18T00:34:17.140Z,3.40
2023-04-18T00:36:47.007Z,4.10
2023-04-18T00:39:17.656Z,3.60
2023-04-18T00:41:45.962Z,3.20
2023-04-18T00:44:14.514Z,3.00
2023-04-18T00:46:43.023Z,3.20
2023-04-18T00:49:11.442Z,3.40
2023-04-18T00:51:40.858Z,3.70
2023-04-18T00:54:09.541Z,3.30
2023-04-18T00:56:39.279Z,3.23
2023-04-18T00:59:08.533Z,3.22
2023-04-18T01:01:36.820Z,3.10
2023-04-18T01:04:05.519Z,3.75
2023-04-18T01:06:35.123Z,3.70
2023-04-18T01:09:05.524Z,3.20
2023-04-18T01:11:33.965Z,3.03
2023-04-18T01:14:05.269Z,3.50
2023-04-18T01:16:37.173Z,3.60
2023-04-18T01:19:06.053Z,2.80
2023-04-18T01:21:37.329Z,3.20
2023-04-18T01:24:11.146Z,3.10
2023-04-18T01:26:39.644Z,3.20
2023-04-18T01:29:08.530Z,3.45
2023-04-18T01:31:37.162Z,3.08
2023-04-18T01:34:06.031Z,2.90
2023-04-18T01:36:34.884Z,2.97
2023-04-18T01:39:04.023Z,3.60
2023-04-18T01:41:33.647Z,3.25
2023-04-18T01:44:02.402Z,3.13
2023-04-18T01:46:30.916Z,3.33
2023-04-18T01:49:00.749Z,3.20
2023-04-18T01:51:29.078Z,3.00
2023-04-18T01:53:57.316Z,3.20
2023-04-18T01:56:26.109Z,3.25
2023-04-18T02:02:45.897Z,3.00
2023-04-18T02:05:14.344Z,3.63
2023-04-18T02:07:42.982Z,3.58
2023-04-18T02:10:12.252Z,3.30
2023-04-18T02:12:40.445Z,3.40
2023-04-18T02:15:10.001Z,3.40
2023-04-18T02:17:38.202Z,3.67
2023-04-18T02:20:09.220Z,3.13
2023-04-18T02:22:38.115Z,3.67
2023-04-18T02:25:07.030Z,3.60
2023-04-18T02:27:35.271Z,3.60
2023-04-18T02:30:03.447Z,3.65
2023-04-18T02:32:34.760Z,3.35
2023-04-18T02:35:02.955Z,3.90
2023-04-18T02:37:32.471Z,3.30
2023-04-18T02:40:00.580Z,3.90
2023-04-18T02:42:33.112Z,3.70
2023-04-18T02:45:02.731Z,3.33
2023-04-18T02:47:35.426Z,3.67
2023-04-18T02:50:09.863Z,3.80
2023-04-18T02:52:40.147Z,3.70
2023-04-18T02:55:10.376Z,3.20
2023-04-18T02:57:42.169Z,3.45
2023-04-18T03:00:25.560Z,3.50
2023-04-18T03:03:03.121Z,4.05
2023-04-18T03:05:50.738Z,4.03
2023-04-18T03:08:21.603Z,4.05
2023-04-18T03:10:50.114Z,3.75
2023-04-18T03:13:20.890Z,4.18
2023-04-18T03:15:49.732Z,4.20
2023-04-18T03:18:18.134Z,4.13
2023-04-18T03:20:47.967Z,4.80
2023-04-18T03:23:18.333Z,4.50
2023-04-18T03:25:48.611Z,4.43
2023-04-18T03:28:16.864Z,4.18
2023-04-18T03:30:45.409Z,4.47
2023-04-18T03:33:14.389Z,4.20
2023-04-18T03:35:43.539Z,4.40
2023-04-18T03:38:11.766Z,5.07
2023-04-18T03:40:42.135Z,4.80
2023-04-18T03:43:20.194Z,4.82
2023-04-18T03:45:48.761Z,4.78
2023-04-18T03:48:18.536Z,4.55
2023-04-18T03:50:48.175Z,5.15
2023-04-18T03:53:16.949Z,4.95
2023-04-18T03:55:45.330Z,5.20
2023-04-18T03:58:18.084Z,5.28
2023-04-18T04:00:48.017Z,4.95
2023-04-18T04:03:16.854Z,4.30
2023-04-18T04:05:47.849Z,5.00
2023-04-18T04:08:17.547Z,4.80
2023-04-18T04:10:46.829Z,5.30
2023-04-18T04:13:15.409Z,5.20
2023-04-18T04:15:45.903Z,4.90
2023-04-18T04:18:14.184Z,4.82
2023-04-18T04:20:46.674Z,5.10
2023-04-18T04:23:22.659Z,5.20
2023-04-18T04:25:53.031Z,5.30
2023-04-18T04:28:36.802Z,4.28
2023-04-18T04:31:10.240Z,5.30
2023-04-18T04:33:39.756Z,5.22
2023-04-18T04:36:18.651Z,5.22
2023-04-18T04:38:49.184Z,5.28
2023-04-18T04:41:18.725Z,4.82
2023-04-18T04:43:47.896Z,5.00
2023-04-18T04:46:24.940Z,4.45
2023-04-18T04:48:54.345Z,5.30
2023-04-18T04:51:22.562Z,4.60
2023-04-18T04:53:50.989Z,4.47
2023-04-18T04:56:19.480Z,4.85
2023-04-18T04:58:48.398Z,4.80
2023-04-18T05:01:25.944Z,4.97
2023-04-18T05:03:55.089Z,5.30
2023-04-18T05:06:23.377Z,4.70
2023-04-18T05:08:51.886Z,5.20
2023-04-18T05:11:21.051Z,4.90
2023-04-18T05:13:49.257Z,4.80
2023-04-18T05:16:17.976Z,5.05
2023-04-18T05:18:47.659Z,5.10
2023-04-18T05:21:15.776Z,4.60
2023-04-18T05:23:43.880Z,4.50
2023-04-18T05:26:12.066Z,4.00
2023-04-18T05:28:41.399Z,4.72
2023-04-18T05:31:09.635Z,4.72
2023-04-18T05:33:37.852Z,4.70
2023-04-18T05:36:08.054Z,5.13
2023-04-18T05:38:36.245Z,4.50
2023-04-18T05:41:04.407Z,4.60
2023-04-18T05:43:32.567Z,4.68
2023-04-18T05:46:00.726Z,4.60
2023-04-18T05:48:28.973Z,4.90
2023-04-18T05:50:57.810Z,4.70
2023-04-18T05:53:27.438Z,5.32
2023-04-18T05:55:57.522Z,4.75
2023-04-18T05:58:25.865Z,5.30
2023-04-18T06:00:54.291Z,4.93
2023-04-18T06:03:22.536Z,5.50
2023-04-18T06:05:51.063Z,5.40
2023-04-18T06:08:19.193Z,5.40
2023-04-18T06:10:48.707Z,5.47
2023-04-18T06:13:16.833Z,5.40
2023-04-18T06:15:45.071Z,5.30
2023-04-18T06:18:13.283Z,5.60
2023-04-18T06:20:42.127Z,5.35
2023-04-18T06:23:10.583Z,5.90
2023-04-18T06:25:38.720Z,5.80
2023-04-18T06:28:08.343Z,6.68
2023-04-18T06:30:36.590Z,6.50
2023-04-18T06:33:04.886Z,6.50
2023-04-18T06:35:33.277Z,6.82
2023-04-18T06:38:01.530Z,6.50
2023-04-18T06:40:29.763Z,6.53
2023-04-18T06:42:57.894Z,6.13
2023-04-18T06:45:27.432Z,6.55
2023-04-18T06:47:55.672Z,6.50
2023-04-18T06:50:24.023Z,6.20
2023-04-18T06:52:52.112Z,6.00
2023-04-18T06:55:20.353Z,6.60
2023-04-18T06:57:48.832Z,6.60
2023-04-18T07:00:17.571Z,6.50
2023-04-18T07:02:47.258Z,7.20
2023-04-18T07:05:15.778Z,6.30
2023-04-18T07:07:43.961Z,6.90
2023-04-18T07:10:12.300Z,6.60
2023-04-18T07:12:40.436Z,7.00
2023-04-18T07:15:09.843Z,6.60
2023-04-18T07:17:37.983Z,6.40
2023-04-18T07:20:09.086Z,6.80
2023-04-18T07:22:37.261Z,7.00
2023-04-18T07:25:06.089Z,6.88
2023-04-18T07:27:35.640Z,7.37
2023-04-18T07:30:03.937Z,6.55
2023-04-18T07:32:32.211Z,7.45
2023-04-18T07:35:00.384Z,6.60
2023-04-18T07:37:29.934Z,7.30
2023-04-18T07:39:58.121Z,6.80
2023-04-18T07:42:26.416Z,6.65
2023-04-18T07:44:58.737Z,6.90
2023-04-18T07:47:30.241Z,7.07
2023-04-18T07:49:59.146Z,6.20
2023-04-18T07:52:28.816Z,6.85
2023-04-18T07:54:56.967Z,7.07
2023-04-18T07:57:25.180Z,6.75
2023-04-18T07:59:53.866Z,6.55
2023-04-18T08:02:22.368Z,7.30
2023-04-18T08:04:52.049Z,6.90
2023-04-18T08:07:20.491Z,6.33
2023-04-18T08:09:49.944Z,6.90
2023-04-18T08:12:18.149Z,6.75
2023-04-18T08:14:46.356Z,6.70
2023-04-18T08:17:16.125Z,6.60
2023-04-18T08:19:45.581Z,7.65
2023-04-18T08:22:13.770Z,7.68
2023-04-18T08:24:57.212Z,7.47
2023-04-18T08:27:31.748Z,7.18
2023-04-18T08:30:00.527Z,7.45
2023-04-18T08:32:28.830Z,7.00
2023-04-18T08:34:57.499Z,7.90
2023-04-18T08:37:27.764Z,7.20
2023-04-18T08:39:56.092Z,7.30
2023-04-18T08:42:24.724Z,7.35
2023-04-18T08:44:54.282Z,7.70
2023-04-18T08:47:22.746Z,7.47
2023-04-18T08:49:52.199Z,7.30
2023-04-18T08:52:23.642Z,7.07
2023-04-18T08:54:52.418Z,7.13
2023-04-18T08:57:26.683Z,6.72
2023-04-18T08:59:56.471Z,7.22
2023-04-18T09:02:42.071Z,7.10
2023-04-18T09:05:15.141Z,7.60
2023-04-18T09:07:44.117Z,7.07
2023-04-18T09:10:13.784Z,6.60
2023-04-18T09:12:50.300Z,7.20
2023-04-18T09:15:23.588Z,7.00
2023-04-18T09:17:54.064Z,6.90
2023-04-18T09:20:34.627Z,7.00
2023-04-18T09:23:04.839Z,7.75
2023-04-18T09:25:36.004Z,6.95
2023-04-18T09:28:05.667Z,7.18
2023-04-18T09:30:38.353Z,7.40
2023-04-18T09:33:09.364Z,7.50
2023-04-18T09:35:38.485Z,7.32
2023-04-18T09:38:07.443Z,6.95
2023-04-18T09:40:35.918Z,7.88
2023-04-18T09:43:20.090Z,7.85
2023-04-18T09:45:49.728Z,7.80
2023-04-18T09:48:17.949Z,8.70
2023-04-18T09:50:49.184Z,8.13
2023-04-18T09:53:21.052Z,7.50
2023-04-18T09:55:52.329Z,8.07
2023-04-18T09:58:23.362Z,7.33
2023-04-18T10:00:55.099Z,8.30
2023-04-18T10:03:28.825Z,8.00
2023-04-18T10:05:57.948Z,8.50
2023-04-18T10:08:27.419Z,8.43
2023-04-18T10:10:58.594Z,7.60
2023-04-18T10:13:29.778Z,8.40
2023-04-18T10:15:59.718Z,8.48
2023-04-18T10:18:28.011Z,8.40
2023-04-18T10:21:04.073Z,8.88
2023-04-18T10:23:37.760Z,8.30
2023-04-18T10:26:06.437Z,8.90
2023-04-18T10:28:54.786Z,8.80
2023-04-18T10:31:25.579Z,9.02
2023-04-18T10:34:04.742Z,8.40
2023-04-18T10:36:34.169Z,8.63
2023-04-18T10:39:04.597Z,8.57
2023-04-18T10:41:34.585Z,8.30
2023-04-18T10:44:18.195Z,10.38
2023-04-18T10:47:32.682Z,9.60
2023-04-18T10:50:06.464Z,10.05
2023-04-18T10:52:35.962Z,10.40
2023-04-18T10:55:16.968Z,9.90
2023-04-18T10:57:46.162Z,9.97
2023-04-18T11:00:16.960Z,9.60
2023-04-18T11:02:54.167Z,9.52
2023-04-18T11:05:26.562Z,9.80
2023-04-18T11:07:55.303Z,9.40
2023-04-18T11:10:25.469Z,9.55
2023-04-18T11:12:54.666Z,9.48
2023-04-18T11:15:24.323Z,10.52
2023-04-18T11:18:03.108Z,9.70
2023-04-18T11:20:40.007Z,8.88
2023-04-18T11:23:17.842Z,9.03
2023-04-18T11:25:47.269Z,9.10
2023-04-18T11:28:21.045Z,9.75
2023-04-18T11:30:49.653Z,9.90
2023-04-18T11:33:18.010Z,9.68
2023-04-18T11:35:47.969Z,9.43
2023-04-18T11:38:16.916Z,9.60
2023-04-18T11:40:49.325Z,9.88
2023-04-18T11:43:21.999Z,9.40
2023-04-18T11:45:54.855Z,10.00
2023-04-18T11:48:23.546Z,9.70
2023-04-18T11:50:53.328Z,9.40
2023-04-18T11:53:34.056Z,9.05
2023-04-18T11:56:03.523Z,9.10
2023-04-18T11:58:33.082Z,8.90
2023-04-18T12:01:16.083Z,9.07
2023-04-18T12:03:45.243Z,9.13
2023-04-18T12:06:15.046Z,9.52
2023-04-18T12:08:44.621Z,9.10
2023-04-18T12:11:21.632Z,9.40
2023-04-18T12:13:49.972Z,9.80
2023-04-18T12:16:18.148Z,9.75
2023-04-18T12:18:47.322Z,9.30
2023-04-18T12:21:17.784Z,9.40
2023-04-18T12:23:46.388Z,8.60
2023-04-18T12:26:18.256Z,8.75
2023-04-18T12:28:48.010Z,8.85
2023-04-18T12:31:16.217Z,8.82
2023-04-18T12:33:44.433Z,8.75
2023-04-18T12:36:12.617Z,8.95
2023-04-18T12:38:42.312Z,9.60
2023-04-18T12:41:10.970Z,9.63
2023-04-18T12:43:39.095Z,9.30
2023-04-18T12:46:07.286Z,9.60
2023-04-18T12:48:35.564Z,9.68
2023-04-18T12:51:03.667Z,9.40
2023-04-18T12:53:31.831Z,9.45
2023-04-18T12:56:01.344Z,9.10
2023-04-18T12:58:29.470Z,10.00
2023-04-18T13:00:57.779Z,9.20
2023-04-18T13:03:26.418Z,9.90
2023-04-18T13:05:54.759Z,9.27
2023-04-18T13:08:23.413Z,9.73
2023-04-18T13:10:51.657Z,9.87
2023-04-18T13:13:21.591Z,9.93
2023-04-18T13:15:49.707Z,10.40
2023-04-18T13:18:17.828Z,10.27
2023-04-18T13:20:46.037Z,9.17
2023-04-18T13:23:14.198Z,8.95
2023-04-18T13:25:42.315Z,9.45
2023-04-18T13:28:10.371Z,9.02
2023-04-18T13:30:40.050Z,8.80
2023-04-18T13:33:08.247Z,9.10
2023-04-18T13:35:37.537Z,8.93
2023-04-18T13:38:05.711Z,9.40
2023-04-18T13:40:34.140Z,9.30
2023-04-18T13:43:02.331Z,9.20
2023-04-18T13:45:30.859Z,8.50
2023-04-18T13:48:00.625Z,8.70
2023-04-18T13:50:28.790Z,8.82
2023-04-18T13:52:57.213Z,8.88
2023-04-18T13:55:25.334Z,8.32
2023-04-18T13:57:53.524Z,7.70
2023-04-18T14:00:22.056Z,7.80
2023-04-18T14:02:51.091Z,8.40
2023-04-18T14:05:20.884Z,7.90
2023-04-18T14:07:49.570Z,8.90
2023-04-18T14:10:17.851Z,8.50
2023-04-18T14:12:45.961Z,8.45
2023-04-18T14:15:14.114Z,9.10
2023-04-18T14:17:44.114Z,7.85
2023-04-18T14:20:15.549Z,8.35
2023-04-18T14:22:45.455Z,7.00
2023-04-18T14:25:14.284Z,7.60
2023-04-18T14:27:42.390Z,7.28
2023-04-18T14:30:11.790Z,7.20
2023-04-18T14:32:40.199Z,6.85
2023-04-18T14:35:09.310Z,7.40
2023-04-18T14:37:37.558Z,7.87
2023-04-18T14:40:09.648Z,7.78
2023-04-18T14:42:38.716Z,8.10
2023-04-18T14:45:08.345Z,8.50
2023-04-18T14:47:39.013Z,8.23
2023-04-18T14:50:08.748Z,8.25
2023-04-18T14:52:37.099Z,8.02
2023-04-18T14:55:09.942Z,8.00
2023-04-18T14:57:39.164Z,7.90
2023-04-18T15:00:10.291Z,8.27
2023-04-18T15:02:38.519Z,7.90
2023-04-18T15:05:08.280Z,8.10
2023-04-18T15:07:37.855Z,7.15
2023-04-18T15:10:08.951Z,7.60
2023-04-18T15:12:37.193Z,7.50
2023-04-18T15:15:06.199Z,7.10
2023-04-18T15:17:34.422Z,7.70
2023-04-18T15:20:05.533Z,7.40
2023-04-18T15:22:33.667Z,7.22
2023-04-18T15:25:01.825Z,7.80
2023-04-18T15:27:31.383Z,8.07
2023-04-18T15:29:59.527Z,8.10
2023-04-18T15:32:27.706Z,7.53
2023-04-18T15:34:55.948Z,8.07
2023-04-18T15:37:24.084Z,7.20
2023-04-18T15:39:52.151Z,7.30
2023-04-18T15:42:20.329Z,6.85
2023-04-18T15:44:50.565Z,6.90
2023-04-18T15:47:18.842Z,6.90
2023-04-18T15:49:47.174Z,7.75
2023-04-18T15:52:15.869Z,7.18
2023-04-18T15:54:44.418Z,8.20
2023-04-18T15:57:13.781Z,7.75
2023-04-18T15:59:41.895Z,7.38
2023-04-18T16:02:11.690Z,7.43
2023-04-18T16:04:39.991Z,7.80
2023-04-18T16:07:08.830Z,7.40
2023-04-18T16:09:37.070Z,7.47
2023-04-18T16:12:07.147Z,8.35
2023-04-18T16:14:35.449Z,8.17
2023-04-18T16:17:03.860Z,8.00
2023-04-18T16:19:36.204Z,7.50
2023-04-18T16:22:04.504Z,7.88
2023-04-18T16:24:32.638Z,7.87
2023-04-18T16:27:00.832Z,7.38
2023-04-18T16:29:31.732Z,7.80
2023-04-18T16:32:00.011Z,7.85
2023-04-18T16:34:28.249Z,7.80
2023-04-18T16:36:57.713Z,7.32
2023-04-18T16:39:25.867Z,7.70
2023-04-18T16:41:53.998Z,7.97
2023-04-18T16:44:22.219Z,7.53
2023-04-18T16:46:50.507Z,7.72
2023-04-18T16:49:19.059Z,7.63
2023-04-18T16:51:47.392Z,7.57
2023-04-18T16:54:17.388Z,7.80
2023-04-18T16:56:45.547Z,7.95
2023-04-18T16:59:13.695Z,8.15
2023-04-18T17:01:41.842Z,7.90
2023-04-18T17:04:10.115Z,7.50
2023-04-18T17:06:38.314Z,7.90
2023-04-18T17:09:06.935Z,7.72
2023-04-18T17:11:39.564Z,7.80
2023-04-18T17:14:09.128Z,7.65
2023-04-18T17:16:39.418Z,7.80
2023-04-18T17:19:07.636Z,7.90
2023-04-18T17:21:36.440Z,7.53
2023-04-18T17:24:06.649Z,7.32
2023-04-18T17:26:37.365Z,7.80
2023-04-18T17:29:05.693Z,7.40
2023-04-18T17:31:34.095Z,7.60
2023-04-18T17:34:03.522Z,7.32
2023-04-18T17:36:31.697Z,7.80
2023-04-18T17:39:06.134Z,7.32
2023-04-18T17:41:39.276Z,6.90
2023-04-18T17:44:10.196Z,7.50
2023-04-18T17:46:38.459Z,7.50
2023-04-18T17:49:06.673Z,8.70
2023-04-18T17:51:34.805Z,7.87
2023-04-18T17:54:02.960Z,7.28
2023-04-18T17:56:31.654Z,7.25
2023-04-18T17:59:01.153Z,7.10
2023-04-18T18:01:30.424Z,6.65
2023-04-18T18:03:58.906Z,6.80
2023-04-18T18:06:28.341Z,6.63
2023-04-18T18:08:56.669Z,7.20
2023-04-18T18:11:24.825Z,7.60
2023-04-18T18:13:54.665Z,7.50
2023-04-18T18:16:25.035Z,6.60
2023-04-18T18:18:53.300Z,6.57
2023-04-18T18:21:21.468Z,6.80
2023-04-18T18:23:49.711Z,6.72
2023-04-18T18:26:17.930Z,6.40
2023-04-18T18:28:46.207Z,7.10
2023-04-18T18:31:14.592Z,7.10
2023-04-18T18:33:44.166Z,6.40
2023-04-18T18:36:12.289Z,7.20
2023-04-18T18:38:40.390Z,6.47
2023-04-18T18:41:08.848Z,6.60
2023-04-18T18:43:37.190Z,6.90
2023-04-18T18:46:05.291Z,6.38
2023-04-18T18:48:36.857Z,6.95
2023-04-18T18:51:06.404Z,6.93
2023-04-18T18:53:34.607Z,7.40
2023-04-18T18:56:03.827Z,7.30
2023-04-18T18:58:31.956Z,7.00
2023-04-18T19:01:02.321Z,7.97
2023-04-18T19:03:30.652Z,6.53
2023-04-18T19:05:58.864Z,7.47
2023-04-18T19:08:28.331Z,6.45
2023-04-18T19:10:56.491Z,7.47
2023-04-18T19:13:25.126Z,6.90
2023-04-18T19:15:53.309Z,7.10
2023-04-18T19:18:21.457Z,8.00
2023-04-18T19:20:50.681Z,7.03
2023-04-18T19:23:19.377Z,7.22
2023-04-18T19:25:49.020Z,7.13
2023-04-18T19:28:18.335Z,7.20
2023-04-18T19:30:46.591Z,6.90
2023-04-18T19:33:14.739Z,7.00
2023-04-18T19:35:43.291Z,6.93
2023-04-18T19:38:11.384Z,7.82
2023-04-18T19:40:39.749Z,6.82
2023-04-18T19:43:09.390Z,7.57
2023-04-18T19:45:37.711Z,7.67
2023-04-18T19:48:06.091Z,7.47
2023-04-18T19:50:34.302Z,7.13
2023-04-18T19:53:02.460Z,7.57
2023-04-18T19:55:31.542Z,7.90
2023-04-18T19:58:00.862Z,7.85
2023-04-18T20:00:30.505Z,6.90
2023-04-18T20:02:59.498Z,7.30
2023-04-18T20:05:27.974Z,8.13
2023-04-18T20:07:56.158Z,7.65
2023-04-18T20:10:24.496Z,8.43
2023-04-18T20:12:52.601Z,7.70
2023-04-18T20:15:20.993Z,7.65
2023-04-18T20:17:50.660Z,7.60
2023-04-18T20:20:18.791Z,8.18
2023-04-18T20:22:47.726Z,7.78
2023-04-18T20:25:16.064Z,6.83
2023-04-18T20:27:44.145Z,6.90
2023-04-18T20:30:12.825Z,8.30
2023-04-18T20:32:40.964Z,8.05
2023-04-18T20:35:10.915Z,7.70
2023-04-18T20:37:39.314Z,8.05
2023-04-18T20:40:09.954Z,7.67
2023-04-18T20:42:38.902Z,7.75
2023-04-18T20:45:10.842Z,7.40
2023-04-18T20:47:40.142Z,7.80
2023-04-18T20:50:11.201Z,7.40
2023-04-18T20:52:42.590Z,7.97
2023-04-18T20:55:11.019Z,8.20
2023-04-18T20:57:39.320Z,7.90
2023-04-18T21:00:10.532Z,7.25
2023-04-18T21:02:38.916Z,7.60
2023-04-18T21:05:07.742Z,8.35
2023-04-18T21:07:37.905Z,7.80
2023-04-18T21:10:06.800Z,7.50
2023-04-18T21:12:34.945Z,7.32
2023-04-18T21:15:03.470Z,7.20
2023-04-18T21:17:31.639Z,7.38
2023-04-18T21:20:00.191Z,7.30
2023-04-18T21:22:28.321Z,7.53
2023-04-18T21:24:58.107Z,7.88
2023-04-18T21:27:26.258Z,7.47
2023-04-18T21:29:54.375Z,7.40
2023-04-18T21:32:22.499Z,7.95
2023-04-18T21:34:50.692Z,7.78
2023-04-18T21:37:18.922Z,7.88
2023-04-18T21:39:47.042Z,7.95
2023-04-18T21:42:16.863Z,7.80
2023-04-18T21:44:45.111Z,7.90
2023-04-18T21:47:13.438Z,7.45
2023-04-18T21:49:42.975Z,7.70
2023-04-18T21:52:11.171Z,7.43
2023-04-18T21:54:39.851Z,8.13
2023-04-18T21:57:08.005Z,8.27
2023-04-18T21:59:37.462Z,7.95
2023-04-18T22:02:05.968Z,8.05
2023-04-18T22:04:34.578Z,8.73
2023-04-18T22:07:02.781Z,7.80
2023-04-18T22:09:31.341Z,8.27
2023-04-18T22:11:59.511Z,8.10
2023-04-18T22:14:28.191Z,8.00
2023-04-18T22:16:58.745Z,8.13
2023-04-18T22:19:29.332Z,8.30
2023-04-18T22:21:57.538Z,9.00
2023-04-18T22:24:26.638Z,8.57
2023-04-18T22:26:54.882Z,8.30
2023-04-18T22:29:22.975Z,8.38
2023-04-18T22:31:51.156Z,8.15
2023-04-18T22:34:20.803Z,8.10
2023-04-18T22:36:49.073Z,8.45
2023-04-18T22:39:17.187Z,8.80
2023-04-18T22:41:45.436Z,8.50
2023-04-18T22:44:13.861Z,8.57
2023-04-18T22:46:42.644Z,8.55
2023-04-18T22:49:10.819Z,8.45
2023-04-18T22:51:40.428Z,8.43
2023-04-18T22:54:08.593Z,8.40
2023-04-18T22:56:36.727Z,8.65
2023-04-18T22:59:04.831Z,9.05
2023-04-18T23:01:32.985Z,8.15
2023-04-18T23:04:01.562Z,8.18
2023-04-18T23:06:29.992Z,8.60
2023-04-18T23:08:59.789Z,8.32
2023-04-18T23:11:27.957Z,8.60
2023-04-18T23:13:56.179Z,8.37
2023-04-18T23:16:24.488Z,8.80
2023-04-18T23:18:52.834Z,9.10
2023-04-18T23:21:21.042Z,8.73
2023-04-18T23:23:49.235Z,8.10
2023-04-18T23:26:18.804Z,8.40
2023-04-18T23:28:47.007Z,8.63
2023-04-18T23:31:15.528Z,8.70
2023-04-18T23:33:44.293Z,7.90
2023-04-18T23:36:12.923Z,8.57
2023-04-18T23:38:41.888Z,8.45
2023-04-18T23:41:10.086Z,8.77
2023-04-18T23:43:39.606Z,8.07
2023-04-18T23:46:07.825Z,8.50
2023-04-18T23:48:35.988Z,8.88
2023-04-18T23:51:04.199Z,8.45
2023-04-18T23:53:32.388Z,7.80
2023-04-18T23:56:00.657Z,8.10
2023-04-18T23:58:28.928Z,8.40
